COOK1: Arkansas River Nr Coolidge, KS

                                SHEF ID:       COOK1     ARKANSAS R NR COOLIDGE, KS
STATION TYPE:
Regulating: Stage = 8.00, Flow = 2041

PRECIP STAGE STAGE(2) RIV-FLOW WTR-TEMP CONDUCT BAT-LOAD
in ft ft cfs F umho/cm volt
Ccp-Rev Ccp-Rev Ccp-Rev Ccp-Rev Ccp-Rev Ccp-Rev Ccp-Rev
(America/Chicago)
11/04 00:00 0.00 1.67 ---- 34 52.68 6914 12.48
11/04 01:00 0.00 1.66 ---- 33 52.29 6935 12.46
11/04 02:00 0.00 1.65 ---- 33 51.84 6961 12.45
11/04 03:00 0.00 1.64 ---- 32 51.44 6988 12.44
11/04 04:00 0.00 1.64 ---- 32 50.85 7025 12.42
11/04 05:00 0.00 1.63 ---- 31 50.29 7065 12.37
11/04 06:00 0.00 1.63 ---- 31 49.57 7088 12.34
11/04 07:00 0.00 1.63 ---- 31 48.96 7106 12.28
11/04 08:00 0.00 1.63 ---- 31 48.47 7114 12.24
11/04 09:00 0.00 1.63 ---- 31 48.52 7110 12.40
11/04 10:00 0.00 1.63 ---- 31 49.32 7103 13.11
11/04 11:00 0.00 1.64 ---- 32 14.00 0 13.71
11/04 12:00 0.00 1.66 ---- 33 56.01 7072 13.82
11/04 13:00 0.00 1.66 ---- 33 59.29 7042 14.39
11/04 14:00 0.00 1.68 ---- 35 60.42 7013 14.41
11/04 15:00 0.00 1.68 ---- 35 61.30 6980 14.24
11/04 16:00 0.00 1.69 ---- 35 61.57 6964 14.05
11/04 17:00 0.00 1.68 ---- 35 60.73 6950 13.51
11/04 18:00 0.00 1.68 ---- 35 59.41 6932 12.73
11/04 19:00 0.00 1.68 ---- 35 58.03 6917 12.70
11/04 20:00 0.00 1.68 ---- 35 57.04 6930 12.64
11/04 21:00 0.00 1.68 ---- 35 56.21 6943 12.59
11/04 22:00 0.00 1.67 ---- 34 55.42 6948 12.54
11/04 23:00 0.00 1.66 ---- 33 54.50 6955 12.51
Data processed at Wed 05Nov2025 05:30 GMT

NOTICE: If you are parsing this page

Please convert to using our Data API. Starting January 1st, 2026 we will be migrating to: https://water.usace.army.mil with modern pages rendered in JavaScript. You will no longer be able to scrape this page! CWMSDataAPI (CDA)

Timeseries IDs (TSIDs)

TSIDs used from left to right in the data table
COOL.Precip-Inc.Total.1Hour.1Hour.Ccp-Rev
COOL.Stage.Inst.1Hour.0.Ccp-Rev
COOL.Stage-Alt.Inst.1Hour.0.Ccp-Rev
COOL.Flow.Inst.1Hour.0.Ccp-Rev
COOL.Temp-Water.Inst.1Hour.0.Ccp-Rev
COOL.Cond.Inst.1Hour.0.Ccp-Rev
COOL.Volt-Battery Load.Inst.1Hour.0.Ccp-Rev

                            

All information presented herein is the property of the government of the United States of America and may be revised or deleted at any time without prior notice. Dissemination of this information without the expressed written consent of the Public Affairs Office, Tulsa District U.S. Army Corps of Engineers is strictly prohibited. These data are gathered electronically and, as presented, have NOT undergone any form of quality control. These data are NOT guaranteed to be valid or correct.